Maersk Magellan — 9V6751 — position and weather

sailwx.info

Track history (hours):
 
Tides and Currents Weather Stations Pressure Air Temp Water Temp Dewpoint Dewpoint Depression Visibility Wind Speed Wind Dir Waves Ship Positions

Maersk Magellan

Last reported at 2014-Sep-18 02:19 UTC. Time now 2014-Sep-20 03:58 UTC.
Position N 38°10' W 009°47'.

; draft 10.2 m.

Type: Ship. MMSI: 566549000.

Date/timePositionNaut miles runAvg speedWind from/ knotsBaromVisibWave heightAir tempDewpointWater temp
2014-Sep-18 02:19N 38°10' W 009°47'2111.8
2014-Sep-18 00:33N 37°49' W 009°41'1211.7
2014-Sep-17 23:33N 37°38' W 009°37'7810.5
2014-Sep-17 16:04N 36°33' W 008°43'15611.5
2014-Sep-17 02:29N 35°58' W 005°35'1010.1
2014-Sep-17 01:33N 36°01' W 005°23'7 7.0
2014-Sep-17 00:31N 35°55' W 005°20'0 0.1
2014-Sep-16 23:31N 35°55' W 005°20'0 0.1
2014-Sep-16 22:31N 35°55' W 005°20'0 0.0
2014-Sep-16 21:31N 35°55' W 005°20'0 0.0
2014-Sep-16 20:31N 35°55' W 005°20'0 0.1
2014-Sep-16 19:31N 35°55' W 005°20'0 0.0
2014-Sep-16 18:31N 35°55' W 005°20'0 0.2
2014-Sep-16 17:33N 35°55' W 005°20'4 3.8
2014-Sep-16 16:33N 35°56' W 005°16'21013.1
2014-Sep-16 00:33N 36°34' W 000°59'2013.7
2014-Sep-15 23:07N 36°40' W 000°36'1113.3
2014-Sep-15 22:19N 36°43' W 000°23'1013.0
2014-Sep-15 21:33N 36°47' W 000°12'1313.1
2014-Sep-15 20:33N 36°51' E 000°03'1313.4
2014-Sep-15 19:33N 36°56' E 000°19'1313.5
2014-Sep-15 18:33N 37°00' E 000°35'1413.6
2014-Sep-15 17:33N 37°05' E 000°51'1413.6
2014-Sep-15 16:33N 37°09' E 001°07'1413.8
2014-Sep-15 15:33N 37°14' E 001°24'1513.9
2014-Sep-15 14:29N 37°19' E 001°41'1413.6
2014-Sep-15 13:30N 37°23' E 001°57'10813.3
2014-Sep-15 05:23N 37°37' E 004°12'1514.1
2014-Sep-15 04:17N 37°36' E 004°31'1714.3
2014-Sep-15 03:05N 37°37' E 004°53'814.1
2014-Sep-15 02:33N 37°37' E 005°03'1414.4
2014-Sep-15 01:33N 37°37' E 005°20'1414.4
2014-Sep-15 00:33N 37°37' E 005°39'3514.5
2014-Sep-14 22:09N 37°37' E 006°23'15013.8
2014-Sep-14 11:16N 37°39' E 009°32'1013.8
2014-Sep-14 10:33N 37°39' E 009°44'1414.0
2014-Sep-14 09:33N 37°39' E 010°02'1413.7
2014-Sep-14 08:33N 37°39' E 010°19'14313.0
2014-Sep-13 21:33N 36°47' E 013°07'1313.0
2014-Sep-13 20:33N 36°44' E 013°22'2811.8
2014-Sep-13 18:11N 36°32' E 013°54'1011.6
2014-Sep-13 17:21N 36°29' E 014°05'1112.2
2014-Sep-13 16:28N 36°26' E 014°18'1212.8
2014-Sep-13 15:33N 36°22' E 014°32'1312.6
2014-Sep-13 14:33N 36°17' E 014°46'1312.8
2014-Sep-13 13:33N 36°13' E 015°01'  
Track history (hours):
 
Tides and Currents Weather Stations Pressure Air Temp Water Temp Dewpoint Dewpoint Depression Visibility Wind Speed Wind Dir Waves Ship Positions

Maersk Magellan

Last reported at 2014-Sep-18 02:19 UTC. Time now 2014-Sep-20 03:58 UTC.
Position N 38°10' W 009°47'.

; draft 10.2 m.

Type: Ship. MMSI: 566549000.

Date/timePositionNaut miles runAvg speedWind from/ knotsBaromVisibWave heightAir tempDewpointWater temp
2014-Sep-18 02:19N 38°10' W 009°47'2111.8
2014-Sep-18 00:33N 37°49' W 009°41'1211.7
2014-Sep-17 23:33N 37°38' W 009°37'7810.5
2014-Sep-17 16:04N 36°33' W 008°43'15611.5
2014-Sep-17 02:29N 35°58' W 005°35'1010.1
2014-Sep-17 01:33N 36°01' W 005°23'7 7.0
2014-Sep-17 00:31N 35°55' W 005°20'0 0.1
2014-Sep-16 23:31N 35°55' W 005°20'0 0.1
2014-Sep-16 22:31N 35°55' W 005°20'0 0.0
2014-Sep-16 21:31N 35°55' W 005°20'0 0.0
2014-Sep-16 20:31N 35°55' W 005°20'0 0.1
2014-Sep-16 19:31N 35°55' W 005°20'0 0.0
2014-Sep-16 18:31N 35°55' W 005°20'0 0.2
2014-Sep-16 17:33N 35°55' W 005°20'4 3.8
2014-Sep-16 16:33N 35°56' W 005°16'21013.1
2014-Sep-16 00:33N 36°34' W 000°59'2013.7
2014-Sep-15 23:07N 36°40' W 000°36'1113.3
2014-Sep-15 22:19N 36°43' W 000°23'1013.0
2014-Sep-15 21:33N 36°47' W 000°12'1313.1
2014-Sep-15 20:33N 36°51' E 000°03'1313.4
2014-Sep-15 19:33N 36°56' E 000°19'1313.5
2014-Sep-15 18:33N 37°00' E 000°35'1413.6
2014-Sep-15 17:33N 37°05' E 000°51'1413.6
2014-Sep-15 16:33N 37°09' E 001°07'1413.8
2014-Sep-15 15:33N 37°14' E 001°24'1513.9
2014-Sep-15 14:29N 37°19' E 001°41'1413.6
2014-Sep-15 13:30N 37°23' E 001°57'10813.3
2014-Sep-15 05:23N 37°37' E 004°12'1514.1
2014-Sep-15 04:17N 37°36' E 004°31'1714.3
2014-Sep-15 03:05N 37°37' E 004°53'814.1
2014-Sep-15 02:33N 37°37' E 005°03'1414.4
2014-Sep-15 01:33N 37°37' E 005°20'1414.4
2014-Sep-15 00:33N 37°37' E 005°39'3514.5
2014-Sep-14 22:09N 37°37' E 006°23'15013.8
2014-Sep-14 11:16N 37°39' E 009°32'1013.8
2014-Sep-14 10:33N 37°39' E 009°44'1414.0
2014-Sep-14 09:33N 37°39' E 010°02'1413.7
2014-Sep-14 08:33N 37°39' E 010°19'14313.0
2014-Sep-13 21:33N 36°47' E 013°07'1313.0
2014-Sep-13 20:33N 36°44' E 013°22'2811.8
2014-Sep-13 18:11N 36°32' E 013°54'1011.6
2014-Sep-13 17:21N 36°29' E 014°05'1112.2
2014-Sep-13 16:28N 36°26' E 014°18'1212.8
2014-Sep-13 15:33N 36°22' E 014°32'1312.6
2014-Sep-13 14:33N 36°17' E 014°46'1312.8
2014-Sep-13 13:33N 36°13' E 015°01'  

Dump ship's entire track history